Glencoe, Kentucky
Current Conditions -  °F | °C
As of 3:52 AM on Monday 20 Oct 2014 (Local Time) from KCVG Reporting Station
Overcast Overcast  
Wind Chill: 46°   Ceiling: 18000
Heat Index: 46°   Visibility: 8mi
Dew Point: 41°   Wind: 3mph
Humidity: 83%   Direction: 220°SW
Pressure: 30.04"   Gusts: NA
Location:  38.71°N, 84.82°W
Report Text: KCVG 200752Z 22003KT 8SM FEW150 BKN180 OVC240 08/05 A3004 RMK AO2 SLP170 T00780050
Loading
Personal Weather Stations






























Interactive Weather Map
Tropical Storm Tracking
New forecast layout! Learn more

10-Day Weather Forecast

Advertisements
Track Severe Weather on mobile